createdAt,value
2022-08-06T00:00:05.725Z,1.70
2022-08-06T00:02:32.194Z,1.50
2022-08-06T00:05:06.461Z,1.70
2022-08-06T00:07:48.099Z,1.80
2022-08-06T00:10:18.595Z,1.80
2022-08-06T00:12:48.820Z,1.50
2022-08-06T00:15:42.604Z,1.90
2022-08-06T00:18:09.300Z,1.20
2022-08-06T00:20:42.701Z,1.50
2022-08-06T00:23:16.711Z,1.60
2022-08-06T00:25:51.927Z,1.50
2022-08-06T00:28:31.528Z,1.30
2022-08-06T00:31:06.169Z,1.60
2022-08-06T00:33:44.055Z,1.77
2022-08-06T00:36:24.837Z,2.03
2022-08-06T00:38:55.227Z,1.52
2022-08-06T00:41:27.331Z,1.92
2022-08-06T00:43:59.845Z,1.60
2022-08-06T00:46:30.996Z,1.67
2022-08-06T00:48:59.782Z,1.50
2022-08-06T00:51:51.025Z,1.42
2022-08-06T00:54:28.883Z,1.45
2022-08-06T00:57:10.366Z,1.97
2022-08-06T00:59:43.018Z,1.35
2022-08-06T01:02:11.811Z,1.60
2022-08-06T01:04:43.247Z,1.40
2022-08-06T01:07:12.065Z,1.38
2022-08-06T01:09:57.371Z,1.30
2022-08-06T01:12:33.849Z,1.20
2022-08-06T01:15:15.563Z,1.40
2022-08-06T01:17:58.019Z,1.42
2022-08-06T01:21:57.003Z,1.38
2022-08-06T01:24:06.553Z,1.55
2022-08-06T01:26:43.301Z,1.42
2022-08-06T01:29:19.758Z,1.15
2022-08-06T01:31:54.666Z,1.38
2022-08-06T01:34:31.881Z,1.08
2022-08-06T01:37:12.519Z,1.52
2022-08-06T01:40:01.886Z,1.20
2022-08-06T01:42:36.388Z,1.35
2022-08-06T01:45:13.237Z,1.40
2022-08-06T01:47:54.125Z,1.48
2022-08-06T01:50:31.210Z,1.00
2022-08-06T01:53:02.733Z,1.20
2022-08-06T01:55:56.511Z,1.20
2022-08-06T01:58:31.773Z,1.60
2022-08-06T02:03:49.967Z,1.55
2022-08-06T02:06:37.521Z,1.35
2022-08-06T02:09:23.016Z,1.35
2022-08-06T02:12:06.617Z,1.40
2022-08-06T02:14:43.280Z,1.50
2022-08-06T02:17:15.453Z,1.40
2022-08-06T02:20:07.256Z,2.00
2022-08-06T02:22:42.694Z,1.23
2022-08-06T02:28:00.264Z,1.35
2022-08-06T02:30:36.841Z,1.48
2022-08-06T02:33:18.243Z,1.45
2022-08-06T02:35:52.061Z,1.45
2022-08-06T02:38:29.497Z,1.30
2022-08-06T02:41:03.174Z,1.48
2022-08-06T02:43:35.742Z,1.40
2022-08-06T02:46:12.910Z,1.20
2022-08-06T02:48:48.245Z,1.35
2022-08-06T02:51:44.303Z,1.40
2022-08-06T02:56:49.509Z,1.27
2022-08-06T02:59:25.742Z,1.20
2022-08-06T03:01:58.972Z,1.23
2022-08-06T03:04:33.202Z,1.17
2022-08-06T03:07:26.889Z,1.15
2022-08-06T03:10:00.576Z,1.40
2022-08-06T03:12:31.351Z,1.48
2022-08-06T03:15:05.927Z,1.13
2022-08-06T03:17:40.162Z,1.33
2022-08-06T03:20:17.625Z,1.50
2022-08-06T03:22:51.144Z,1.35
2022-08-06T03:25:24.059Z,1.42
2022-08-06T03:28:02.012Z,1.40
2022-08-06T03:30:34.023Z,1.23
2022-08-06T03:33:23.150Z,1.30
2022-08-06T03:36:00.616Z,1.77
2022-08-06T03:38:33.660Z,1.20
2022-08-06T03:41:02.819Z,1.48
2022-08-06T03:43:56.530Z,1.30
2022-08-06T03:46:28.452Z,1.23
2022-08-06T03:48:59.662Z,1.13
2022-08-06T03:51:53.107Z,1.27
2022-08-06T03:54:30.308Z,1.60
2022-08-06T03:57:08.028Z,1.50
2022-08-06T03:59:58.937Z,1.40
2022-08-06T04:02:45.449Z,1.20
2022-08-06T04:05:22.803Z,1.33
2022-08-06T04:07:57.167Z,1.27
2022-08-06T04:10:34.458Z,1.55
2022-08-06T04:13:39.086Z,1.70
2022-08-06T04:15:58.356Z,1.60
2022-08-06T04:18:32.899Z,1.55
2022-08-06T04:21:21.954Z,1.73
2022-08-06T04:23:55.586Z,1.45
2022-08-06T04:26:28.690Z,1.30
2022-08-06T04:28:59.094Z,1.30
2022-08-06T04:32:12.492Z,1.40
2022-08-06T04:34:27.298Z,1.67
2022-08-06T04:37:01.351Z,1.50
2022-08-06T04:39:38.388Z,1.10
2022-08-06T04:42:19.780Z,1.48
2022-08-06T04:44:59.542Z,1.50
2022-08-06T04:47:41.489Z,1.30
2022-08-06T04:50:17.815Z,1.77
2022-08-06T04:52:52.422Z,1.40
2022-08-06T04:55:33.418Z,1.40
2022-08-06T04:58:11.299Z,1.25
2022-08-06T05:01:03.362Z,1.42
2022-08-06T05:04:07.685Z,1.65
2022-08-06T05:06:35.566Z,1.52
2022-08-06T05:09:23.533Z,1.80
2022-08-06T05:12:07.109Z,1.75
2022-08-06T05:14:43.040Z,1.70
2022-08-06T05:17:16.843Z,1.45
2022-08-06T05:19:50.169Z,1.40
2022-08-06T05:22:52.359Z,1.20
2022-08-06T05:25:19.353Z,1.50
2022-08-06T05:28:03.669Z,1.45
2022-08-06T05:30:46.025Z,1.80
2022-08-06T05:33:26.425Z,1.58
2022-08-06T05:36:01.398Z,1.50
2022-08-06T05:38:35.837Z,1.55
2022-08-06T05:41:07.446Z,1.75
2022-08-06T05:43:59.302Z,1.88
2022-08-06T05:46:33.809Z,1.48
2022-08-06T05:49:23.379Z,1.25
2022-08-06T05:52:04.918Z,1.52
2022-08-06T05:54:39.167Z,1.77
2022-08-06T05:57:18.994Z,1.73
2022-08-06T06:00:42.127Z,1.77
2022-08-06T06:03:07.276Z,1.70
2022-08-06T06:06:04.586Z,1.55
2022-08-06T06:08:37.329Z,1.80
2022-08-06T06:11:12.495Z,1.55
2022-08-06T06:13:59.533Z,1.52
2022-08-06T06:16:35.937Z,1.30
2022-08-06T06:19:19.961Z,1.27
2022-08-06T06:21:57.054Z,1.50
2022-08-06T06:24:32.751Z,1.60
2022-08-06T06:27:35.905Z,1.60
2022-08-06T06:30:10.105Z,1.77
2022-08-06T06:32:50.288Z,1.60
2022-08-06T06:35:32.589Z,1.60
2022-08-06T06:38:16.852Z,2.00
2022-08-06T06:41:03.192Z,2.92
2022-08-06T06:43:44.672Z,1.73
2022-08-06T06:46:36.675Z,1.60
2022-08-06T06:50:00.015Z,1.55
2022-08-06T06:52:30.159Z,1.25
2022-08-06T06:55:15.674Z,1.40
2022-08-06T06:57:52.773Z,1.52
2022-08-06T07:00:46.968Z,1.55
2022-08-06T07:03:11.360Z,1.73
2022-08-06T07:06:05.410Z,1.88
2022-08-06T07:08:41.911Z,1.77
2022-08-06T07:11:13.059Z,1.65
2022-08-06T07:13:53.011Z,1.67
2022-08-06T07:16:35.491Z,2.22
2022-08-06T07:19:08.511Z,1.80
2022-08-06T07:21:47.582Z,2.08
2022-08-06T07:24:38.322Z,1.65
2022-08-06T07:27:14.480Z,1.67
2022-08-06T07:29:59.777Z,2.10
2022-08-06T07:32:32.922Z,1.80
2022-08-06T07:35:12.303Z,1.58
2022-08-06T07:37:52.235Z,1.75
2022-08-06T07:40:30.385Z,1.95
2022-08-06T07:43:21.992Z,2.13
2022-08-06T07:45:56.209Z,1.80
2022-08-06T07:48:33.311Z,1.60
2022-08-06T07:51:04.663Z,1.80
2022-08-06T07:53:52.890Z,1.67
2022-08-06T07:56:27.967Z,2.42
2022-08-06T07:59:00.099Z,1.90
2022-08-06T08:01:32.850Z,1.52
2022-08-06T08:04:34.971Z,1.55
2022-08-06T08:07:13.162Z,2.08
2022-08-06T08:10:01.400Z,1.58
2022-08-06T08:12:37.692Z,2.08
2022-08-06T08:15:17.617Z,1.95
2022-08-06T08:17:57.798Z,1.58
2022-08-06T08:20:34.312Z,1.45
2022-08-06T08:23:04.773Z,1.52
2022-08-06T08:25:42.294Z,1.42
2022-08-06T08:28:15.103Z,1.80
2022-08-06T08:30:47.876Z,2.00
2022-08-06T08:33:19.227Z,2.53
2022-08-06T08:36:00.209Z,2.00
2022-08-06T08:38:30.843Z,2.30
2022-08-06T08:41:05.699Z,1.73
2022-08-06T08:44:00.345Z,1.63
2022-08-06T08:46:37.896Z,2.00
2022-08-06T08:49:20.786Z,1.70
2022-08-06T08:51:53.276Z,1.83
2022-08-06T08:54:24.873Z,1.70
2022-08-06T08:57:09.879Z,1.83
2022-08-06T08:59:57.343Z,1.52
2022-08-06T09:02:30.724Z,1.70
2022-08-06T09:05:00.534Z,1.85
2022-08-06T09:07:36.127Z,1.92
2022-08-06T09:10:09.241Z,1.77
2022-08-06T09:12:45.190Z,1.50
2022-08-06T09:15:19.124Z,1.67
2022-08-06T09:18:11.117Z,1.77
2022-08-06T09:20:41.290Z,1.58
2022-08-06T09:23:16.989Z,1.58
2022-08-06T09:25:52.226Z,1.83
2022-08-06T09:28:46.912Z,2.03
2022-08-06T09:31:22.379Z,1.77
2022-08-06T09:34:30.591Z,2.67
2022-08-06T09:36:54.712Z,1.70
2022-08-06T09:40:00.270Z,1.60
2022-08-06T09:42:43.421Z,1.55
2022-08-06T09:45:17.511Z,2.40
2022-08-06T09:50:43.588Z,2.10
2022-08-06T09:53:14.957Z,2.30
2022-08-06T09:55:47.322Z,2.40
2022-08-06T09:58:16.306Z,2.00
2022-08-06T10:00:51.118Z,2.42
2022-08-06T10:04:04.082Z,1.88
2022-08-06T10:06:14.503Z,2.00
2022-08-06T10:08:49.715Z,1.80
2022-08-06T10:11:41.254Z,1.80
2022-08-06T10:14:26.690Z,1.73
2022-08-06T10:17:11.261Z,1.38
2022-08-06T10:19:51.981Z,1.30
2022-08-06T10:22:26.999Z,1.75
2022-08-06T10:24:58.265Z,2.50
2022-08-06T10:27:36.238Z,1.92
2022-08-06T10:30:08.716Z,1.80
2022-08-06T10:32:50.099Z,2.05
2022-08-06T10:35:25.523Z,2.42
2022-08-06T10:38:03.406Z,1.65
2022-08-06T10:40:33.894Z,1.58
2022-08-06T10:43:08.431Z,1.67
2022-08-06T10:45:49.065Z,1.80
2022-08-06T10:49:00.601Z,1.92
2022-08-06T10:51:11.058Z,2.00
2022-08-06T10:54:01.544Z,1.85
2022-08-06T10:56:38.057Z,1.60
2022-08-06T10:59:15.192Z,2.38
2022-08-06T11:02:03.288Z,1.80
2022-08-06T11:04:49.121Z,1.38
2022-08-06T11:08:12.915Z,1.60
2022-08-06T11:11:20.022Z,1.50
2022-08-06T11:14:03.807Z,1.50
2022-08-06T11:16:34.615Z,1.73
2022-08-06T11:19:09.599Z,1.77
2022-08-06T11:21:59.083Z,1.50
2022-08-06T11:24:33.258Z,1.30
2022-08-06T11:27:11.610Z,1.45
2022-08-06T11:30:12.684Z,1.70
2022-08-06T11:32:50.757Z,1.38
2022-08-06T11:35:53.148Z,1.70
2022-08-06T11:39:16.668Z,1.63
2022-08-06T11:41:57.647Z,1.50
2022-08-06T11:44:31.525Z,1.50
2022-08-06T11:47:13.722Z,1.70
2022-08-06T11:49:46.486Z,1.92
2022-08-06T11:52:41.992Z,1.95
2022-08-06T11:55:23.597Z,2.45
2022-08-06T11:58:23.533Z,1.60
2022-08-06T12:01:03.949Z,2.00
2022-08-06T12:03:49.579Z,1.70
2022-08-06T12:06:26.550Z,1.60
2022-08-06T12:09:11.970Z,1.40
2022-08-06T12:11:45.157Z,1.30
2022-08-06T12:14:49.257Z,1.40
2022-08-06T12:17:20.941Z,1.50
2022-08-06T12:20:01.418Z,1.55
2022-08-06T12:22:34.275Z,1.40
2022-08-06T12:25:11.185Z,1.48
2022-08-06T12:27:50.493Z,1.20
2022-08-06T12:30:36.730Z,2.00
2022-08-06T12:33:12.568Z,1.50
2022-08-06T12:35:53.078Z,1.55
2022-08-06T12:38:24.617Z,1.52
2022-08-06T12:40:57.926Z,1.42
2022-08-06T12:43:46.273Z,1.20
2022-08-06T12:46:19.583Z,1.15
2022-08-06T12:48:51.905Z,1.50
2022-08-06T12:51:22.050Z,1.33
2022-08-06T12:53:59.575Z,1.20
2022-08-06T12:56:33.021Z,1.30
2022-08-06T12:59:22.375Z,1.70
2022-08-06T13:02:09.494Z,1.10
2022-08-06T13:04:46.408Z,1.50
2022-08-06T13:07:16.336Z,2.45
2022-08-06T13:10:33.552Z,1.10
2022-08-06T13:14:02.584Z,1.23
2022-08-06T13:15:31.803Z,1.60
2022-08-06T13:18:40.508Z,1.48
2022-08-06T13:21:04.846Z,1.77
2022-08-06T13:23:37.767Z,1.30
2022-08-06T13:26:21.692Z,1.10
2022-08-06T13:30:33.282Z,1.17
2022-08-06T13:32:20.254Z,1.20
2022-08-06T13:34:58.262Z,1.40
2022-08-06T13:37:56.785Z,1.15
2022-08-06T13:40:47.303Z,1.30
2022-08-06T13:43:39.076Z,1.10
2022-08-06T13:46:17.424Z,1.30
2022-08-06T13:48:53.036Z,1.10
2022-08-06T13:51:28.976Z,1.17
2022-08-06T13:53:59.530Z,1.40
2022-08-06T13:56:44.236Z,1.60
2022-08-06T13:59:18.532Z,1.60
2022-08-06T14:01:48.206Z,1.58
2022-08-06T14:04:22.879Z,1.60
2022-08-06T14:06:58.639Z,1.05
2022-08-06T14:09:57.961Z,1.30
2022-08-06T14:12:20.557Z,1.10
2022-08-06T14:14:50.853Z,1.10
2022-08-06T14:17:19.751Z,1.20
2022-08-06T14:20:17.770Z,1.10
2022-08-06T14:22:44.022Z,1.20
2022-08-06T14:25:14.192Z,1.05
2022-08-06T14:27:44.728Z,1.10
2022-08-06T14:30:27.294Z,1.00
2022-08-06T14:33:03.043Z,1.30
2022-08-06T14:35:50.529Z,0.95
2022-08-06T14:38:21.755Z,0.90
2022-08-06T14:41:17.661Z,0.88
2022-08-06T14:44:03.876Z,1.25
2022-08-06T14:46:32.368Z,2.00
2022-08-06T14:49:05.483Z,1.55
2022-08-06T14:52:19.843Z,1.20
2022-08-06T14:54:31.972Z,1.30
2022-08-06T14:57:14.899Z,1.63
2022-08-06T14:59:48.844Z,2.08
2022-08-06T15:02:21.658Z,2.35
2022-08-06T15:04:54.620Z,1.50
2022-08-06T15:07:26.995Z,6.10
2022-08-06T15:10:28.221Z,2.00
2022-08-06T15:13:01.656Z,3.05
2022-08-06T15:15:36.492Z,4.45
2022-08-06T15:18:40.622Z,8.75
2022-08-06T15:21:10.108Z,3.75
2022-08-06T15:23:52.735Z,2.03
2022-08-06T15:26:41.800Z,1.58
2022-08-06T15:29:15.338Z,1.00
2022-08-06T15:31:45.122Z,1.30
2022-08-06T15:34:20.576Z,1.10
2022-08-06T15:36:59.140Z,1.38
2022-08-06T15:39:53.222Z,1.30
2022-08-06T15:42:23.832Z,1.35
2022-08-06T15:44:53.261Z,1.08
2022-08-06T15:47:27.022Z,1.02
2022-08-06T15:50:04.433Z,1.50
2022-08-06T15:52:34.956Z,1.00
2022-08-06T15:55:16.005Z,1.50
2022-08-06T15:58:04.368Z,1.10
2022-08-06T16:00:36.058Z,1.20
2022-08-06T16:03:08.194Z,1.10
2022-08-06T16:06:10.192Z,1.15
2022-08-06T16:08:33.910Z,1.13
2022-08-06T16:11:09.189Z,1.02
2022-08-06T16:13:38.784Z,1.17
2022-08-06T16:16:08.745Z,0.98
2022-08-06T16:18:48.519Z,1.90
2022-08-06T16:21:18.061Z,2.20
2022-08-06T16:23:56.351Z,1.90
2022-08-06T16:26:39.974Z,2.05
2022-08-06T16:29:12.700Z,1.60
2022-08-06T16:31:48.622Z,1.10
2022-08-06T16:34:24.813Z,0.80
2022-08-06T16:36:59.873Z,1.33
2022-08-06T16:39:36.694Z,1.40
2022-08-06T16:42:10.433Z,1.17
2022-08-06T16:44:56.755Z,1.33
2022-08-06T16:48:03.665Z,1.23
2022-08-06T16:50:26.696Z,1.15
2022-08-06T16:54:13.586Z,1.17
2022-08-06T16:55:48.802Z,1.17
2022-08-06T16:58:34.437Z,0.82
2022-08-06T17:02:13.997Z,0.80
2022-08-06T17:03:59.998Z,0.80
2022-08-06T17:06:31.504Z,1.10
2022-08-06T17:09:16.338Z,1.25
2022-08-06T17:11:58.880Z,1.23
2022-08-06T17:14:37.353Z,1.08
2022-08-06T17:17:24.571Z,1.20
2022-08-06T17:20:08.019Z,1.20
2022-08-06T17:22:36.932Z,1.20
2022-08-06T17:25:08.048Z,1.60
2022-08-06T17:27:57.695Z,1.98
2022-08-06T17:30:28.085Z,1.05
2022-08-06T17:32:56.460Z,1.05
2022-08-06T17:36:28.618Z,1.30
2022-08-06T17:38:15.694Z,1.10
2022-08-06T17:43:54.355Z,0.90
2022-08-06T17:46:25.916Z,1.00
2022-08-06T17:51:33.374Z,0.80
2022-08-06T17:54:26.384Z,1.10
2022-08-06T17:56:52.412Z,1.00
2022-08-06T17:59:21.780Z,1.02
2022-08-06T18:01:53.014Z,0.70
2022-08-06T18:04:30.646Z,1.00
2022-08-06T18:07:11.854Z,0.93
2022-08-06T18:10:11.113Z,0.93
2022-08-06T18:12:48.946Z,1.02
2022-08-06T18:15:19.440Z,1.40
2022-08-06T18:18:04.405Z,1.08
2022-08-06T18:20:39.480Z,1.50
2022-08-06T18:23:20.729Z,1.83
2022-08-06T18:25:55.851Z,1.63
2022-08-06T18:28:36.516Z,1.80
2022-08-06T18:31:10.837Z,1.60
2022-08-06T18:33:46.304Z,1.80
2022-08-06T18:36:33.188Z,2.55
2022-08-06T18:39:02.767Z,1.85
2022-08-06T18:41:33.086Z,1.15
2022-08-06T18:44:01.915Z,1.30
2022-08-06T18:46:56.029Z,1.33
2022-08-06T18:49:32.346Z,1.63
2022-08-06T18:52:24.573Z,1.15
2022-08-06T18:54:56.407Z,1.00
2022-08-06T18:58:04.947Z,1.30
2022-08-06T19:00:20.969Z,1.20
2022-08-06T19:02:52.787Z,1.63
2022-08-06T19:05:26.894Z,1.30
2022-08-06T19:07:58.497Z,1.48
2022-08-06T19:10:28.775Z,0.90
2022-08-06T19:12:57.650Z,1.15
2022-08-06T19:15:46.307Z,1.15
2022-08-06T19:18:17.984Z,1.38
2022-08-06T19:20:48.775Z,1.30
2022-08-06T19:24:00.923Z,1.45
2022-08-06T19:26:12.309Z,1.23
2022-08-06T19:28:49.157Z,1.08
2022-08-06T19:31:41.493Z,0.90
2022-08-06T19:34:14.558Z,1.27
2022-08-06T19:39:53.525Z,1.30
2022-08-06T19:42:15.497Z,1.30
2022-08-06T19:45:03.984Z,1.30
2022-08-06T19:47:47.870Z,1.73
2022-08-06T19:50:18.345Z,1.73
2022-08-06T19:52:50.081Z,1.40
2022-08-06T19:56:08.333Z,1.52
2022-08-06T19:58:26.191Z,1.40
2022-08-06T20:01:31.285Z,1.65
2022-08-06T20:03:57.962Z,2.25
2022-08-06T20:06:54.601Z,1.63
2022-08-06T20:09:26.907Z,1.50
2022-08-06T20:12:02.871Z,1.45
2022-08-06T20:14:33.264Z,1.15
2022-08-06T20:17:04.282Z,1.40
2022-08-06T20:20:06.215Z,1.25
2022-08-06T20:22:21.819Z,1.30
2022-08-06T20:24:51.896Z,2.00
2022-08-06T20:27:38.570Z,2.08
2022-08-06T20:30:10.740Z,1.70
2022-08-06T20:32:41.159Z,1.40
2022-08-06T20:35:14.386Z,1.33
2022-08-06T20:37:44.900Z,1.30
2022-08-06T20:40:17.764Z,1.40
2022-08-06T20:45:23.416Z,1.30
2022-08-06T20:48:01.325Z,1.50
2022-08-06T20:50:33.538Z,1.05
2022-08-06T20:53:04.773Z,1.30
2022-08-06T20:55:41.579Z,1.45
2022-08-06T20:58:11.538Z,1.27
2022-08-06T21:00:40.211Z,1.13
2022-08-06T21:05:10.726Z,1.30
2022-08-06T21:05:57.861Z,1.50
2022-08-06T21:08:30.007Z,2.08
2022-08-06T21:11:01.094Z,2.30
2022-08-06T21:13:36.086Z,2.08
2022-08-06T21:16:29.163Z,2.50
2022-08-06T21:19:02.551Z,1.90
2022-08-06T21:21:31.450Z,1.42
2022-08-06T21:24:03.203Z,1.40
2022-08-06T21:26:35.205Z,1.60
2022-08-06T21:30:07.132Z,1.77
2022-08-06T21:31:57.116Z,1.17
2022-08-06T21:34:27.164Z,1.50
2022-08-06T21:36:56.531Z,1.73
2022-08-06T21:39:52.690Z,1.63
2022-08-06T21:42:15.410Z,1.70
2022-08-06T21:44:45.448Z,1.88
2022-08-06T21:47:16.547Z,1.65
2022-08-06T21:49:59.813Z,1.20
2022-08-06T21:52:35.695Z,1.60
2022-08-06T21:56:35.436Z,1.70
2022-08-06T21:58:02.559Z,1.92
2022-08-06T22:00:54.225Z,2.38
2022-08-06T22:04:36.506Z,1.85
2022-08-06T22:06:17.334Z,1.90
2022-08-06T22:09:04.077Z,2.40
2022-08-06T22:12:40.367Z,2.55
2022-08-06T22:14:28.918Z,2.38
2022-08-06T22:17:04.821Z,2.50
2022-08-06T22:19:38.335Z,1.90
2022-08-06T22:22:08.242Z,2.13
2022-08-06T22:24:37.771Z,6.47
2022-08-06T22:27:11.154Z,5.60
2022-08-06T22:30:00.744Z,7.55
2022-08-06T22:32:36.131Z,4.20
2022-08-06T22:35:09.413Z,3.25
2022-08-06T22:38:17.044Z,6.63
2022-08-06T22:40:29.937Z,3.40
2022-08-06T22:43:01.534Z,3.85
2022-08-06T22:46:00.638Z,3.08
2022-08-06T22:48:28.472Z,2.25
2022-08-06T22:51:10.524Z,2.60
2022-08-06T22:54:26.760Z,2.05
2022-08-06T22:56:28.747Z,2.17
2022-08-06T22:59:04.589Z,2.10
2022-08-06T23:02:06.039Z,2.47
2022-08-06T23:04:36.945Z,2.40
2022-08-06T23:07:09.285Z,1.88
2022-08-06T23:09:39.668Z,1.75
2022-08-06T23:12:12.937Z,1.67
2022-08-06T23:14:41.900Z,3.13
2022-08-06T23:17:12.919Z,1.80
2022-08-06T23:19:56.920Z,1.00
2022-08-06T23:22:28.925Z,1.20
2022-08-06T23:25:58.410Z,1.20
2022-08-06T23:27:51.691Z,1.50
2022-08-06T23:30:21.251Z,1.33
2022-08-06T23:32:51.402Z,1.67
2022-08-06T23:35:35.766Z,1.92
2022-08-06T23:38:32.192Z,1.92
2022-08-06T23:40:55.960Z,1.98
2022-08-06T23:43:34.806Z,1.38
2022-08-06T23:46:03.866Z,1.70
2022-08-06T23:48:34.337Z,1.50
2022-08-06T23:51:05.203Z,1.70
2022-08-06T23:54:06.751Z,1.70
2022-08-06T23:56:26.368Z,1.60
2022-08-06T23:58:58.597Z,1.65
